sensor_id;sensor_type;location;lat;lon;timestamp;P1;durP1;ratioP1;P2;durP2;ratioP2
53618;SDS011;68717;53.040;18.488;2023-11-19T00:00:02;63.08;;;31.58;;
53618;SDS011;68717;53.040;18.488;2023-11-19T00:00:17;61.67;;;31.63;;
53618;SDS011;68717;53.040;18.488;2023-11-19T00:00:50;60.95;;;31.17;;
53618;SDS011;68717;53.040;18.488;2023-11-19T00:01:25;63.38;;;32.17;;
53618;SDS011;68717;53.040;18.488;2023-11-19T00:01:38;62.08;;;31.88;;
53618;SDS011;68717;53.040;18.488;2023-11-19T00:01:51;61.83;;;32.08;;
53618;SDS011;68717;53.040;18.488;2023-11-19T00:02:05;63.80;;;33.00;;
53618;SDS011;68717;53.040;18.488;2023-11-19T00:02:20;62.53;;;32.88;;
53618;SDS011;68717;53.040;18.488;2023-11-19T00:02:34;60.83;;;32.42;;
53618;SDS011;68717;53.040;18.488;2023-11-19T00:02:46;59.35;;;31.95;;
53618;SDS011;68717;53.040;18.488;2023-11-19T00:02:59;60.78;;;31.33;;
53618;SDS011;68717;53.040;18.488;2023-11-19T00:03:12;61.47;;;31.60;;
53618;SDS011;68717;53.040;18.488;2023-11-19T00:03:25;60.58;;;31.52;;
53618;SDS011;68717;53.040;18.488;2023-11-19T00:03:38;62.72;;;31.40;;
53618;SDS011;68717;53.040;18.488;2023-11-19T00:03:51;64.15;;;31.67;;
53618;SDS011;68717;53.040;18.488;2023-11-19T00:04:03;63.42;;;31.67;;
53618;SDS011;68717;53.040;18.488;2023-11-19T00:04:17;65.00;;;31.83;;
53618;SDS011;68717;53.040;18.488;2023-11-19T00:04:31;64.22;;;32.42;;
53618;SDS011;68717;53.040;18.488;2023-11-19T00:04:43;64.22;;;32.67;;
53618;SDS011;68717;53.040;18.488;2023-11-19T00:04:56;64.10;;;32.70;;
53618;SDS011;68717;53.040;18.488;2023-11-19T00:05:10;61.17;;;32.67;;
53618;SDS011;68717;53.040;18.488;2023-11-19T00:05:24;61.47;;;33.20;;
53618;SDS011;68717;53.040;18.488;2023-11-19T00:05:37;64.32;;;33.72;;
53618;SDS011;68717;53.040;18.488;2023-11-19T00:05:50;61.95;;;32.65;;
53618;SDS011;68717;53.040;18.488;2023-11-19T00:06:02;59.05;;;31.50;;
53618;SDS011;68717;53.040;18.488;2023-11-19T00:06:16;56.88;;;31.10;;
53618;SDS011;68717;53.040;18.488;2023-11-19T00:06:30;58.67;;;31.15;;
53618;SDS011;68717;53.040;18.488;2023-11-19T00:06:43;60.97;;;31.38;;
53618;SDS011;68717;53.040;18.488;2023-11-19T00:06:55;63.55;;;31.77;;
53618;SDS011;68717;53.040;18.488;2023-11-19T00:07:14;64.50;;;33.15;;
53618;SDS011;68717;53.040;18.488;2023-11-19T00:07:28;63.90;;;33.80;;
53618;SDS011;68717;53.040;18.488;2023-11-19T00:07:46;66.85;;;33.08;;
53618;SDS011;68717;53.040;18.488;2023-11-19T00:08:00;65.07;;;32.63;;
53618;SDS011;68717;53.040;18.488;2023-11-19T00:08:14;64.18;;;33.08;;
53618;SDS011;68717;53.040;18.488;2023-11-19T00:08:26;66.15;;;33.05;;
53618;SDS011;68717;53.040;18.488;2023-11-19T00:08:40;63.00;;;32.88;;
53618;SDS011;68717;53.040;18.488;2023-11-19T00:08:53;60.90;;;33.13;;
53618;SDS011;68717;53.040;18.488;2023-11-19T00:09:06;62.88;;;33.17;;
53618;SDS011;68717;53.040;18.488;2023-11-19T00:09:20;65.50;;;33.63;;
53618;SDS011;68717;53.040;18.488;2023-11-19T00:09:33;64.35;;;33.22;;
53618;SDS011;68717;53.040;18.488;2023-11-19T00:09:45;62.90;;;32.67;;
53618;SDS011;68717;53.040;18.488;2023-11-19T00:09:58;64.10;;;33.22;;
53618;SDS011;68717;53.040;18.488;2023-11-19T00:10:12;66.07;;;34.00;;
53618;SDS011;68717;53.040;18.488;2023-11-19T00:10:26;65.20;;;33.40;;
53618;SDS011;68717;53.040;18.488;2023-11-19T00:10:40;63.28;;;32.88;;
53618;SDS011;68717;53.040;18.488;2023-11-19T00:10:52;63.83;;;32.75;;
53618;SDS011;68717;53.040;18.488;2023-11-19T00:11:05;64.03;;;32.60;;
53618;SDS011;68717;53.040;18.488;2023-11-19T00:11:18;65.30;;;32.92;;
53618;SDS011;68717;53.040;18.488;2023-11-19T00:11:31;62.63;;;32.65;;
53618;SDS011;68717;53.040;18.488;2023-11-19T00:11:43;64.10;;;32.75;;
53618;SDS011;68717;53.040;18.488;2023-11-19T00:12:06;64.60;;;33.33;;
53618;SDS011;68717;53.040;18.488;2023-11-19T00:12:19;62.55;;;33.53;;
53618;SDS011;68717;53.040;18.488;2023-11-19T00:12:33;65.90;;;33.25;;
53618;SDS011;68717;53.040;18.488;2023-11-19T00:12:46;68.15;;;33.50;;
53618;SDS011;68717;53.040;18.488;2023-11-19T00:13:00;65.22;;;33.28;;
53618;SDS011;68717;53.040;18.488;2023-11-19T00:13:15;62.40;;;32.85;;
53618;SDS011;68717;53.040;18.488;2023-11-19T00:13:28;62.13;;;33.33;;
53618;SDS011;68717;53.040;18.488;2023-11-19T00:13:41;63.00;;;33.58;;
53618;SDS011;68717;53.040;18.488;2023-11-19T00:13:53;63.22;;;33.35;;
53618;SDS011;68717;53.040;18.488;2023-11-19T00:14:06;61.03;;;32.78;;
53618;SDS011;68717;53.040;18.488;2023-11-19T00:14:20;61.05;;;32.63;;
53618;SDS011;68717;53.040;18.488;2023-11-19T00:14:33;63.67;;;33.03;;
53618;SDS011;68717;53.040;18.488;2023-11-19T00:14:47;63.10;;;34.05;;
53618;SDS011;68717;53.040;18.488;2023-11-19T00:15:00;65.03;;;34.65;;
53618;SDS011;68717;53.040;18.488;2023-11-19T00:15:13;66.13;;;34.35;;
53618;SDS011;68717;53.040;18.488;2023-11-19T00:15:26;66.88;;;34.28;;
53618;SDS011;68717;53.040;18.488;2023-11-19T00:15:38;68.38;;;34.25;;
53618;SDS011;68717;53.040;18.488;2023-11-19T00:15:51;67.38;;;34.03;;
53618;SDS011;68717;53.040;18.488;2023-11-19T00:16:05;67.00;;;34.60;;
53618;SDS011;68717;53.040;18.488;2023-11-19T00:16:22;71.40;;;36.47;;
53618;SDS011;68717;53.040;18.488;2023-11-19T00:16:36;75.25;;;37.40;;
53618;SDS011;68717;53.040;18.488;2023-11-19T00:16:48;75.20;;;37.25;;
53618;SDS011;68717;53.040;18.488;2023-11-19T00:17:03;78.18;;;37.95;;
53618;SDS011;68717;53.040;18.488;2023-11-19T00:17:16;84.30;;;39.45;;
53618;SDS011;68717;53.040;18.488;2023-11-19T00:17:29;88.88;;;40.50;;
53618;SDS011;68717;53.040;18.488;2023-11-19T00:17:42;87.22;;;40.33;;
53618;SDS011;68717;53.040;18.488;2023-11-19T00:17:57;83.43;;;39.75;;
53618;SDS011;68717;53.040;18.488;2023-11-19T00:18:13;83.95;;;39.75;;
53618;SDS011;68717;53.040;18.488;2023-11-19T00:18:26;83.35;;;39.03;;
53618;SDS011;68717;53.040;18.488;2023-11-19T00:18:39;86.93;;;39.85;;
53618;SDS011;68717;53.040;18.488;2023-11-19T00:18:52;88.72;;;40.60;;
53618;SDS011;68717;53.040;18.488;2023-11-19T00:19:05;89.30;;;40.83;;
53618;SDS011;68717;53.040;18.488;2023-11-19T00:19:18;89.65;;;41.03;;
53618;SDS011;68717;53.040;18.488;2023-11-19T00:19:30;90.28;;;41.85;;
53618;SDS011;68717;53.040;18.488;2023-11-19T00:19:43;91.28;;;41.63;;
53618;SDS011;68717;53.040;18.488;2023-11-19T00:19:56;93.13;;;42.42;;
53618;SDS011;68717;53.040;18.488;2023-11-19T00:20:09;91.80;;;42.50;;
53618;SDS011;68717;53.040;18.488;2023-11-19T00:20:23;90.40;;;42.22;;
53618;SDS011;68717;53.040;18.488;2023-11-19T00:20:37;91.75;;;42.17;;
53618;SDS011;68717;53.040;18.488;2023-11-19T00:20:50;91.50;;;42.00;;
53618;SDS011;68717;53.040;18.488;2023-11-19T00:21:02;91.00;;;41.55;;
53618;SDS011;68717;53.040;18.488;2023-11-19T00:21:15;89.95;;;41.17;;
53618;SDS011;68717;53.040;18.488;2023-11-19T00:21:28;90.45;;;40.42;;
53618;SDS011;68717;53.040;18.488;2023-11-19T00:21:41;90.30;;;39.83;;
53618;SDS011;68717;53.040;18.488;2023-11-19T00:21:54;89.32;;;39.00;;
53618;SDS011;68717;53.040;18.488;2023-11-19T00:22:06;88.82;;;39.45;;
53618;SDS011;68717;53.040;18.488;2023-11-19T00:22:19;89.72;;;40.10;;
53618;SDS011;68717;53.040;18.488;2023-11-19T00:22:34;94.97;;;40.97;;
53618;SDS011;68717;53.040;18.488;2023-11-19T00:22:47;94.50;;;40.53;;
53618;SDS011;68717;53.040;18.488;2023-11-19T00:23:04;88.85;;;39.38;;
53618;SDS011;68717;53.040;18.488;2023-11-19T00:23:16;89.53;;;39.47;;
53618;SDS011;68717;53.040;18.488;2023-11-19T00:23:29;93.36;;;40.66;;
53618;SDS011;68717;53.040;18.488;2023-11-19T00:23:42;93.53;;;40.78;;
53618;SDS011;68717;53.040;18.488;2023-11-19T00:23:54;91.90;;;40.63;;
53618;SDS011;68717;53.040;18.488;2023-11-19T00:24:10;89.85;;;40.17;;
53618;SDS011;68717;53.040;18.488;2023-11-19T00:24:24;90.07;;;40.10;;
53618;SDS011;68717;53.040;18.488;2023-11-19T00:24:37;88.22;;;39.28;;
53618;SDS011;68717;53.040;18.488;2023-11-19T00:24:51;87.65;;;38.22;;
53618;SDS011;68717;53.040;18.488;2023-11-19T00:25:04;85.38;;;37.42;;
53618;SDS011;68717;53.040;18.488;2023-11-19T00:25:18;83.95;;;37.88;;
53618;SDS011;68717;53.040;18.488;2023-11-19T00:25:31;86.50;;;38.55;;
53618;SDS011;68717;53.040;18.488;2023-11-19T00:25:44;89.70;;;38.97;;
53618;SDS011;68717;53.040;18.488;2023-11-19T00:25:57;92.45;;;39.67;;
53618;SDS011;68717;53.040;18.488;2023-11-19T00:26:09;90.18;;;39.70;;
53618;SDS011;68717;53.040;18.488;2023-11-19T00:26:24;85.63;;;39.47;;
53618;SDS011;68717;53.040;18.488;2023-11-19T00:26:37;89.90;;;39.97;;
53618;SDS011;68717;53.040;18.488;2023-11-19T00:26:50;90.18;;;39.80;;
53618;SDS011;68717;53.040;18.488;2023-11-19T00:27:03;89.63;;;39.72;;
53618;SDS011;68717;53.040;18.488;2023-11-19T00:27:16;89.50;;;39.38;;
53618;SDS011;68717;53.040;18.488;2023-11-19T00:27:28;89.00;;;39.00;;
53618;SDS011;68717;53.040;18.488;2023-11-19T00:27:41;84.45;;;38.20;;
53618;SDS011;68717;53.040;18.488;2023-11-19T00:27:56;85.05;;;38.60;;
53618;SDS011;68717;53.040;18.488;2023-11-19T00:28:11;87.25;;;38.58;;
53618;SDS011;68717;53.040;18.488;2023-11-19T00:28:24;86.82;;;37.88;;
53618;SDS011;68717;53.040;18.488;2023-11-19T00:28:37;83.78;;;37.72;;
53618;SDS011;68717;53.040;18.488;2023-11-19T00:28:50;81.82;;;37.75;;
53618;SDS011;68717;53.040;18.488;2023-11-19T00:29:04;86.68;;;38.65;;
53618;SDS011;68717;53.040;18.488;2023-11-19T00:29:18;87.97;;;38.63;;
53618;SDS011;68717;53.040;18.488;2023-11-19T00:29:32;85.10;;;36.53;;
53618;SDS011;68717;53.040;18.488;2023-11-19T00:29:45;81.90;;;35.72;;
53618;SDS011;68717;53.040;18.488;2023-11-19T00:29:58;83.20;;;36.60;;
53618;SDS011;68717;53.040;18.488;2023-11-19T00:30:11;84.75;;;37.35;;
53618;SDS011;68717;53.040;18.488;2023-11-19T00:30:26;83.28;;;37.88;;
53618;SDS011;68717;53.040;18.488;2023-11-19T00:30:39;81.60;;;37.35;;
53618;SDS011;68717;53.040;18.488;2023-11-19T00:30:52;80.88;;;36.35;;
53618;SDS011;68717;53.040;18.488;2023-11-19T00:31:05;84.47;;;37.97;;
53618;SDS011;68717;53.040;18.488;2023-11-19T00:31:21;82.32;;;37.70;;
53618;SDS011;68717;53.040;18.488;2023-11-19T00:31:33;78.35;;;36.50;;
53618;SDS011;68717;53.040;18.488;2023-11-19T00:31:47;75.85;;;35.47;;
53618;SDS011;68717;53.040;18.488;2023-11-19T00:32:00;75.60;;;35.33;;
53618;SDS011;68717;53.040;18.488;2023-11-19T00:32:14;76.53;;;35.53;;
53618;SDS011;68717;53.040;18.488;2023-11-19T00:32:27;78.47;;;36.22;;
53618;SDS011;68717;53.040;18.488;2023-11-19T00:32:40;77.45;;;36.13;;
53618;SDS011;68717;53.040;18.488;2023-11-19T00:32:52;78.85;;;36.35;;
53618;SDS011;68717;53.040;18.488;2023-11-19T00:33:05;83.47;;;36.88;;
53618;SDS011;68717;53.040;18.488;2023-11-19T00:33:18;80.15;;;36.63;;
53618;SDS011;68717;53.040;18.488;2023-11-19T00:33:31;78.68;;;37.25;;
53618;SDS011;68717;53.040;18.488;2023-11-19T00:33:43;77.13;;;37.20;;
53618;SDS011;68717;53.040;18.488;2023-11-19T00:33:59;74.63;;;36.90;;
53618;SDS011;68717;53.040;18.488;2023-11-19T00:34:14;74.47;;;36.65;;
53618;SDS011;68717;53.040;18.488;2023-11-19T00:34:26;77.00;;;36.78;;
53618;SDS011;68717;53.040;18.488;2023-11-19T00:34:39;82.53;;;38.38;;
53618;SDS011;68717;53.040;18.488;2023-11-19T00:34:52;81.32;;;38.60;;
53618;SDS011;68717;53.040;18.488;2023-11-19T00:35:05;76.13;;;37.17;;
53618;SDS011;68717;53.040;18.488;2023-11-19T00:35:20;78.07;;;37.75;;
53618;SDS011;68717;53.040;18.488;2023-11-19T00:35:33;83.53;;;38.60;;
53618;SDS011;68717;53.040;18.488;2023-11-19T00:35:46;82.60;;;38.33;;
53618;SDS011;68717;53.040;18.488;2023-11-19T00:35:58;81.88;;;37.70;;
53618;SDS011;68717;53.040;18.488;2023-11-19T00:36:11;79.68;;;37.15;;
53618;SDS011;68717;53.040;18.488;2023-11-19T00:36:24;78.88;;;37.83;;
53618;SDS011;68717;53.040;18.488;2023-11-19T00:36:37;75.32;;;37.60;;
53618;SDS011;68717;53.040;18.488;2023-11-19T00:36:49;78.35;;;38.25;;
53618;SDS011;68717;53.040;18.488;2023-11-19T00:37:02;80.47;;;38.65;;
53618;SDS011;68717;53.040;18.488;2023-11-19T00:37:16;79.35;;;38.60;;
53618;SDS011;68717;53.040;18.488;2023-11-19T00:37:30;78.18;;;38.28;;
53618;SDS011;68717;53.040;18.488;2023-11-19T00:37:43;81.43;;;38.55;;
53618;SDS011;68717;53.040;18.488;2023-11-19T00:37:58;83.35;;;39.65;;
53618;SDS011;68717;53.040;18.488;2023-11-19T00:38:10;81.20;;;39.13;;
53618;SDS011;68717;53.040;18.488;2023-11-19T00:38:23;75.60;;;37.35;;
53618;SDS011;68717;53.040;18.488;2023-11-19T00:38:36;74.93;;;37.05;;
53618;SDS011;68717;53.040;18.488;2023-11-19T00:38:48;75.75;;;37.17;;
53618;SDS011;68717;53.040;18.488;2023-11-19T00:39:01;80.15;;;37.60;;
53618;SDS011;68717;53.040;18.488;2023-11-19T00:39:15;81.90;;;37.92;;
53618;SDS011;68717;53.040;18.488;2023-11-19T00:39:28;79.43;;;37.63;;
53618;SDS011;68717;53.040;18.488;2023-11-19T00:39:40;77.00;;;37.58;;
53618;SDS011;68717;53.040;18.488;2023-11-19T00:39:53;77.28;;;37.55;;
53618;SDS011;68717;53.040;18.488;2023-11-19T00:40:08;79.10;;;37.80;;
53618;SDS011;68717;53.040;18.488;2023-11-19T00:40:23;77.18;;;38.55;;
53618;SDS011;68717;53.040;18.488;2023-11-19T00:40:36;76.72;;;39.35;;
53618;SDS011;68717;53.040;18.488;2023-11-19T00:40:49;79.15;;;39.83;;
53618;SDS011;68717;53.040;18.488;2023-11-19T00:41:02;80.40;;;39.42;;
53618;SDS011;68717;53.040;18.488;2023-11-19T00:41:16;80.35;;;39.08;;
53618;SDS011;68717;53.040;18.488;2023-11-19T00:41:28;79.03;;;38.53;;
53618;SDS011;68717;53.040;18.488;2023-11-19T00:41:41;77.03;;;37.10;;
53618;SDS011;68717;53.040;18.488;2023-11-19T00:41:54;76.93;;;37.10;;
53618;SDS011;68717;53.040;18.488;2023-11-19T00:42:06;74.97;;;37.20;;
53618;SDS011;68717;53.040;18.488;2023-11-19T00:42:19;73.22;;;37.20;;
53618;SDS011;68717;53.040;18.488;2023-11-19T00:42:32;76.10;;;37.63;;
53618;SDS011;68717;53.040;18.488;2023-11-19T00:42:45;79.45;;;38.58;;
53618;SDS011;68717;53.040;18.488;2023-11-19T00:42:59;78.20;;;38.13;;
53618;SDS011;68717;53.040;18.488;2023-11-19T00:43:12;73.90;;;36.80;;
53618;SDS011;68717;53.040;18.488;2023-11-19T00:43:26;74.28;;;36.92;;
53618;SDS011;68717;53.040;18.488;2023-11-19T00:43:39;79.43;;;37.80;;
53618;SDS011;68717;53.040;18.488;2023-11-19T00:43:52;79.82;;;38.00;;
53618;SDS011;68717;53.040;18.488;2023-11-19T00:44:04;80.78;;;39.13;;
53618;SDS011;68717;53.040;18.488;2023-11-19T00:44:17;79.00;;;38.83;;
53618;SDS011;68717;53.040;18.488;2023-11-19T00:44:31;76.32;;;38.28;;
53618;SDS011;68717;53.040;18.488;2023-11-19T00:44:44;75.63;;;38.58;;
53618;SDS011;68717;53.040;18.488;2023-11-19T00:45:00;75.18;;;37.95;;
53618;SDS011;68717;53.040;18.488;2023-11-19T00:45:14;77.40;;;38.80;;
53618;SDS011;68717;53.040;18.488;2023-11-19T00:45:27;77.38;;;39.13;;
53618;SDS011;68717;53.040;18.488;2023-11-19T00:45:40;80.05;;;39.50;;
53618;SDS011;68717;53.040;18.488;2023-11-19T00:45:53;78.78;;;39.40;;
53618;SDS011;68717;53.040;18.488;2023-11-19T00:46:08;77.10;;;38.85;;
53618;SDS011;68717;53.040;18.488;2023-11-19T00:46:23;75.32;;;37.97;;
53618;SDS011;68717;53.040;18.488;2023-11-19T00:46:35;79.22;;;38.20;;
53618;SDS011;68717;53.040;18.488;2023-11-19T00:46:49;81.18;;;39.38;;
53618;SDS011;68717;53.040;18.488;2023-11-19T00:47:01;78.57;;;39.75;;
53618;SDS011;68717;53.040;18.488;2023-11-19T00:47:17;77.78;;;39.22;;
53618;SDS011;68717;53.040;18.488;2023-11-19T00:47:32;78.32;;;37.97;;
53618;SDS011;68717;53.040;18.488;2023-11-19T00:47:45;79.53;;;38.03;;
53618;SDS011;68717;53.040;18.488;2023-11-19T00:47:57;78.85;;;38.05;;
53618;SDS011;68717;53.040;18.488;2023-11-19T00:48:11;78.65;;;37.58;;
53618;SDS011;68717;53.040;18.488;2023-11-19T00:48:25;79.57;;;38.58;;
53618;SDS011;68717;53.040;18.488;2023-11-19T00:48:39;82.00;;;39.90;;
53618;SDS011;68717;53.040;18.488;2023-11-19T00:48:51;80.63;;;40.00;;
53618;SDS011;68717;53.040;18.488;2023-11-19T00:49:05;76.63;;;39.05;;
53618;SDS011;68717;53.040;18.488;2023-11-19T00:49:18;77.50;;;38.60;;
53618;SDS011;68717;53.040;18.488;2023-11-19T00:49:32;80.05;;;38.13;;
53618;SDS011;68717;53.040;18.488;2023-11-19T00:49:44;81.13;;;38.40;;
53618;SDS011;68717;53.040;18.488;2023-11-19T00:49:57;80.47;;;38.90;;
53618;SDS011;68717;53.040;18.488;2023-11-19T00:50:10;79.20;;;39.08;;
53618;SDS011;68717;53.040;18.488;2023-11-19T00:50:25;79.60;;;39.25;;
53618;SDS011;68717;53.040;18.488;2023-11-19T00:50:37;81.22;;;39.20;;
53618;SDS011;68717;53.040;18.488;2023-11-19T00:50:54;84.22;;;38.85;;
53618;SDS011;68717;53.040;18.488;2023-11-19T00:51:07;85.93;;;39.00;;
53618;SDS011;68717;53.040;18.488;2023-11-19T00:51:20;84.68;;;39.35;;
53618;SDS011;68717;53.040;18.488;2023-11-19T00:51:32;81.45;;;39.33;;
53618;SDS011;68717;53.040;18.488;2023-11-19T00:51:46;84.28;;;39.92;;
53618;SDS011;68717;53.040;18.488;2023-11-19T00:51:59;85.57;;;40.03;;
53618;SDS011;68717;53.040;18.488;2023-11-19T00:52:12;82.72;;;40.15;;
53618;SDS011;68717;53.040;18.488;2023-11-19T00:52:25;82.68;;;39.90;;
53618;SDS011;68717;53.040;18.488;2023-11-19T00:52:38;82.50;;;40.22;;
53618;SDS011;68717;53.040;18.488;2023-11-19T00:52:51;82.50;;;40.22;;
53618;SDS011;68717;53.040;18.488;2023-11-19T00:53:04;85.40;;;41.47;;
53618;SDS011;68717;53.040;18.488;2023-11-19T00:53:16;84.90;;;41.75;;
53618;SDS011;68717;53.040;18.488;2023-11-19T00:53:29;81.05;;;40.80;;
53618;SDS011;68717;53.040;18.488;2023-11-19T00:53:42;78.85;;;40.80;;
53618;SDS011;68717;53.040;18.488;2023-11-19T00:53:55;87.20;;;41.83;;
53618;SDS011;68717;53.040;18.488;2023-11-19T00:54:08;86.50;;;40.60;;
53618;SDS011;68717;53.040;18.488;2023-11-19T00:54:20;82.78;;;40.22;;
53618;SDS011;68717;53.040;18.488;2023-11-19T00:54:34;82.63;;;41.20;;
53618;SDS011;68717;53.040;18.488;2023-11-19T00:54:47;84.10;;;42.45;;
53618;SDS011;68717;53.040;18.488;2023-11-19T00:54:59;83.20;;;42.35;;
53618;SDS011;68717;53.040;18.488;2023-11-19T00:55:12;80.25;;;41.15;;
53618;SDS011;68717;53.040;18.488;2023-11-19T00:55:25;83.55;;;41.15;;
53618;SDS011;68717;53.040;18.488;2023-11-19T00:55:39;83.80;;;41.10;;
53618;SDS011;68717;53.040;18.488;2023-11-19T00:55:55;84.20;;;40.95;;
53618;SDS011;68717;53.040;18.488;2023-11-19T00:56:08;83.65;;;41.20;;
53618;SDS011;68717;53.040;18.488;2023-11-19T00:56:24;79.82;;;41.17;;
53618;SDS011;68717;53.040;18.488;2023-11-19T00:56:37;82.45;;;42.13;;
53618;SDS011;68717;53.040;18.488;2023-11-19T00:56:49;85.72;;;42.63;;
53618;SDS011;68717;53.040;18.488;2023-11-19T00:57:04;86.85;;;42.70;;
53618;SDS011;68717;53.040;18.488;2023-11-19T00:57:18;84.57;;;42.00;;
53618;SDS011;68717;53.040;18.488;2023-11-19T00:57:31;84.43;;;42.75;;
53618;SDS011;68717;53.040;18.488;2023-11-19T00:57:44;86.40;;;43.67;;
53618;SDS011;68717;53.040;18.488;2023-11-19T00:57:57;85.40;;;43.13;;
53618;SDS011;68717;53.040;18.488;2023-11-19T00:58:10;89.18;;;43.83;;
53618;SDS011;68717;53.040;18.488;2023-11-19T00:58:22;88.75;;;43.20;;
53618;SDS011;68717;53.040;18.488;2023-11-19T00:58:35;86.82;;;42.70;;
53618;SDS011;68717;53.040;18.488;2023-11-19T00:58:49;86.93;;;42.88;;
53618;SDS011;68717;53.040;18.488;2023-11-19T00:59:01;85.97;;;42.92;;
53618;SDS011;68717;53.040;18.488;2023-11-19T00:59:15;84.85;;;42.83;;
53618;SDS011;68717;53.040;18.488;2023-11-19T00:59:28;84.75;;;42.58;;
53618;SDS011;68717;53.040;18.488;2023-11-19T00:59:41;87.18;;;43.17;;
53618;SDS011;68717;53.040;18.488;2023-11-19T00:59:54;89.68;;;44.10;;
53618;SDS011;68717;53.040;18.488;2023-11-19T01:00:07;91.03;;;44.33;;
53618;SDS011;68717;53.040;18.488;2023-11-19T01:00:27;90.32;;;43.97;;
53618;SDS011;68717;53.040;18.488;2023-11-19T01:00:40;90.90;;;43.28;;
53618;SDS011;68717;53.040;18.488;2023-11-19T01:00:55;90.43;;;42.33;;
53618;SDS011;68717;53.040;18.488;2023-11-19T01:01:09;88.22;;;42.58;;
53618;SDS011;68717;53.040;18.488;2023-11-19T01:01:23;87.43;;;43.33;;
53618;SDS011;68717;53.040;18.488;2023-11-19T01:01:37;90.10;;;44.03;;
53618;SDS011;68717;53.040;18.488;2023-11-19T01:01:50;90.38;;;43.72;;
53618;SDS011;68717;53.040;18.488;2023-11-19T01:02:03;94.75;;;43.78;;
53618;SDS011;68717;53.040;18.488;2023-11-19T01:02:18;94.20;;;44.10;;
53618;SDS011;68717;53.040;18.488;2023-11-19T01:02:31;88.38;;;43.72;;
53618;SDS011;68717;53.040;18.488;2023-11-19T01:02:44;87.88;;;42.92;;
53618;SDS011;68717;53.040;18.488;2023-11-19T01:02:58;88.03;;;43.40;;
53618;SDS011;68717;53.040;18.488;2023-11-19T01:03:12;83.70;;;43.08;;
53618;SDS011;68717;53.040;18.488;2023-11-19T01:03:25;82.57;;;42.20;;
53618;SDS011;68717;53.040;18.488;2023-11-19T01:03:38;86.22;;;42.40;;
53618;SDS011;68717;53.040;18.488;2023-11-19T01:03:51;90.07;;;43.03;;
53618;SDS011;68717;53.040;18.488;2023-11-19T01:04:04;92.38;;;44.20;;
53618;SDS011;68717;53.040;18.488;2023-11-19T01:04:18;91.93;;;44.38;;
53618;SDS011;68717;53.040;18.488;2023-11-19T01:04:33;90.40;;;44.17;;
53618;SDS011;68717;53.040;18.488;2023-11-19T01:04:47;86.53;;;43.40;;
53618;SDS011;68717;53.040;18.488;2023-11-19T01:05:01;87.20;;;43.25;;
53618;SDS011;68717;53.040;18.488;2023-11-19T01:05:14;93.70;;;44.15;;
53618;SDS011;68717;53.040;18.488;2023-11-19T01:05:28;92.47;;;43.70;;
53618;SDS011;68717;53.040;18.488;2023-11-19T01:05:40;86.72;;;42.83;;
53618;SDS011;68717;53.040;18.488;2023-11-19T01:05:53;84.45;;;42.40;;
53618;SDS011;68717;53.040;18.488;2023-11-19T01:06:06;84.90;;;42.55;;
53618;SDS011;68717;53.040;18.488;2023-11-19T01:06:26;85.07;;;42.38;;
53618;SDS011;68717;53.040;18.488;2023-11-19T01:06:39;85.78;;;42.05;;
53618;SDS011;68717;53.040;18.488;2023-11-19T01:06:56;90.97;;;42.97;;
53618;SDS011;68717;53.040;18.488;2023-11-19T01:07:10;90.35;;;43.78;;
53618;SDS011;68717;53.040;18.488;2023-11-19T01:07:25;88.43;;;44.05;;
53618;SDS011;68717;53.040;18.488;2023-11-19T01:07:39;89.03;;;43.88;;
53618;SDS011;68717;53.040;18.488;2023-11-19T01:07:51;91.10;;;44.03;;
53618;SDS011;68717;53.040;18.488;2023-11-19T01:08:07;90.45;;;43.95;;
53618;SDS011;68717;53.040;18.488;2023-11-19T01:08:20;88.55;;;43.35;;
53618;SDS011;68717;53.040;18.488;2023-11-19T01:08:33;88.57;;;43.38;;
53618;SDS011;68717;53.040;18.488;2023-11-19T01:08:47;89.45;;;43.58;;
53618;SDS011;68717;53.040;18.488;2023-11-19T01:09:00;88.93;;;43.45;;
53618;SDS011;68717;53.040;18.488;2023-11-19T01:09:13;89.53;;;43.70;;
53618;SDS011;68717;53.040;18.488;2023-11-19T01:09:25;93.35;;;44.15;;
53618;SDS011;68717;53.040;18.488;2023-11-19T01:09:38;96.10;;;44.78;;
53618;SDS011;68717;53.040;18.488;2023-11-19T01:09:51;95.00;;;44.65;;
53618;SDS011;68717;53.040;18.488;2023-11-19T01:10:05;96.10;;;44.95;;
53618;SDS011;68717;53.040;18.488;2023-11-19T01:10:19;100.03;;;45.20;;
53618;SDS011;68717;53.040;18.488;2023-11-19T01:10:32;98.53;;;45.00;;
53618;SDS011;68717;53.040;18.488;2023-11-19T01:10:46;94.15;;;44.28;;
53618;SDS011;68717;53.040;18.488;2023-11-19T01:10:59;92.07;;;43.13;;
53618;SDS011;68717;53.040;18.488;2023-11-19T01:11:19;93.38;;;44.03;;
53618;SDS011;68717;53.040;18.488;2023-11-19T01:11:33;91.15;;;44.42;;
53618;SDS011;68717;53.040;18.488;2023-11-19T01:11:45;88.32;;;43.40;;
53618;SDS011;68717;53.040;18.488;2023-11-19T01:11:58;90.18;;;43.53;;
53618;SDS011;68717;53.040;18.488;2023-11-19T01:12:12;91.10;;;43.60;;
53618;SDS011;68717;53.040;18.488;2023-11-19T01:12:26;92.28;;;43.72;;
53618;SDS011;68717;53.040;18.488;2023-11-19T01:12:39;92.40;;;43.90;;
53618;SDS011;68717;53.040;18.488;2023-11-19T01:12:51;90.68;;;44.17;;
53618;SDS011;68717;53.040;18.488;2023-11-19T01:13:04;89.82;;;44.13;;
53618;SDS011;68717;53.040;18.488;2023-11-19T01:13:18;89.38;;;43.85;;
53618;SDS011;68717;53.040;18.488;2023-11-19T01:13:30;88.72;;;43.50;;
53618;SDS011;68717;53.040;18.488;2023-11-19T01:13:43;89.13;;;43.72;;
53618;SDS011;68717;53.040;18.488;2023-11-19T01:13:56;87.90;;;43.95;;
53618;SDS011;68717;53.040;18.488;2023-11-19T01:14:09;93.05;;;44.70;;
53618;SDS011;68717;53.040;18.488;2023-11-19T01:14:22;96.03;;;44.85;;
53618;SDS011;68717;53.040;18.488;2023-11-19T01:14:36;94.13;;;44.65;;
53618;SDS011;68717;53.040;18.488;2023-11-19T01:14:49;91.18;;;43.67;;
53618;SDS011;68717;53.040;18.488;2023-11-19T01:15:01;92.35;;;43.65;;
53618;SDS011;68717;53.040;18.488;2023-11-19T01:15:14;93.55;;;43.97;;
53618;SDS011;68717;53.040;18.488;2023-11-19T01:15:27;95.30;;;44.78;;
53618;SDS011;68717;53.040;18.488;2023-11-19T01:15:39;91.55;;;44.40;;
53618;SDS011;68717;53.040;18.488;2023-11-19T01:15:53;92.57;;;44.22;;
53618;SDS011;68717;53.040;18.488;2023-11-19T01:16:08;92.53;;;43.80;;
53618;SDS011;68717;53.040;18.488;2023-11-19T01:16:22;87.45;;;43.25;;
53618;SDS011;68717;53.040;18.488;2023-11-19T01:16:35;87.45;;;43.58;;
53618;SDS011;68717;53.040;18.488;2023-11-19T01:16:48;91.20;;;44.85;;
53618;SDS011;68717;53.040;18.488;2023-11-19T01:17:01;92.20;;;44.92;;
53618;SDS011;68717;53.040;18.488;2023-11-19T01:17:14;94.35;;;44.72;;
53618;SDS011;68717;53.040;18.488;2023-11-19T01:17:28;95.82;;;44.60;;
53618;SDS011;68717;53.040;18.488;2023-11-19T01:17:43;94.30;;;44.42;;
53618;SDS011;68717;53.040;18.488;2023-11-19T01:18:00;89.05;;;43.72;;
53618;SDS011;68717;53.040;18.488;2023-11-19T01:18:14;87.25;;;43.13;;